createdAt,value
2022-08-18T00:01:00.874Z,99.90
2022-08-18T00:04:03.705Z,99.90
2022-08-18T00:07:28.698Z,99.90
2022-08-18T00:10:31.669Z,99.90
2022-08-18T00:13:33.491Z,99.90
2022-08-18T00:16:35.291Z,99.90
2022-08-18T00:19:47.619Z,99.90
2022-08-18T00:22:50.671Z,99.90
2022-08-18T00:25:52.549Z,99.90
2022-08-18T00:28:54.318Z,99.90
2022-08-18T00:31:56.166Z,99.90
2022-08-18T00:34:57.913Z,99.90
2022-08-18T00:38:02.644Z,99.90
2022-08-18T00:41:05.905Z,99.90
2022-08-18T00:44:08.564Z,99.90
2022-08-18T00:47:10.478Z,99.90
2022-08-18T00:50:16.734Z,99.90
2022-08-18T00:53:33.416Z,99.90
2022-08-18T00:56:39.941Z,99.90
2022-08-18T01:00:11.446Z,99.90
2022-08-18T01:03:24.424Z,99.90
2022-08-18T01:06:53.771Z,99.90
2022-08-18T01:09:59.470Z,99.90
2022-08-18T01:13:01.326Z,99.90
2022-08-18T01:16:23.207Z,99.90
2022-08-18T01:19:44.697Z,99.90
2022-08-18T01:22:49.383Z,99.90
2022-08-18T01:26:02.978Z,99.90
2022-08-18T01:29:09.677Z,99.90
2022-08-18T01:32:14.026Z,99.90
2022-08-18T01:35:17.700Z,99.90
2022-08-18T01:38:21.024Z,99.90
2022-08-18T01:41:29.433Z,99.90
2022-08-18T01:44:33.623Z,99.90
2022-08-18T01:47:48.129Z,99.90
2022-08-18T01:50:50.410Z,99.90
2022-08-18T01:53:52.138Z,99.90
2022-08-18T01:56:54.696Z,99.90
2022-08-18T01:59:57.698Z,99.90
2022-08-18T02:03:01.788Z,99.90
2022-08-18T02:06:09.775Z,99.90
2022-08-18T02:09:11.529Z,99.90
2022-08-18T02:12:13.991Z,99.90
2022-08-18T02:15:15.968Z,99.90
2022-08-18T02:18:25.078Z,99.90
2022-08-18T02:21:43.745Z,99.90
2022-08-18T02:24:45.590Z,99.90
2022-08-18T02:27:47.440Z,99.90
2022-08-18T02:30:49.132Z,99.90
2022-08-18T02:33:52.204Z,99.90
2022-08-18T02:36:54.432Z,99.90
2022-08-18T02:39:57.202Z,99.90
2022-08-18T02:42:59.620Z,99.90
2022-08-18T02:46:01.962Z,99.90
2022-08-18T02:49:05.169Z,99.90
2022-08-18T02:52:06.945Z,99.90
2022-08-18T02:55:09.099Z,99.90
2022-08-18T02:58:10.781Z,99.90
2022-08-18T03:01:12.794Z,99.90
2022-08-18T03:04:21.102Z,99.90
2022-08-18T03:07:25.368Z,99.90
2022-08-18T03:10:33.306Z,99.90
2022-08-18T03:13:35.922Z,99.90
2022-08-18T03:16:52.957Z,99.90
2022-08-18T03:19:56.357Z,99.90
2022-08-18T03:23:05.560Z,99.90
2022-08-18T03:26:13.977Z,99.90
2022-08-18T03:29:15.739Z,99.90
2022-08-18T03:32:17.645Z,99.90
2022-08-18T03:35:19.357Z,99.90
2022-08-18T03:38:21.271Z,99.90
2022-08-18T03:41:43.677Z,99.90
2022-08-18T03:44:47.496Z,99.90
2022-08-18T03:47:51.200Z,99.90
2022-08-18T03:50:52.995Z,99.90
2022-08-18T03:53:59.073Z,99.90
2022-08-18T03:57:00.895Z,99.90
2022-08-18T04:00:03.888Z,99.90
2022-08-18T04:03:07.946Z,99.90
2022-08-18T04:06:16.167Z,99.90
2022-08-18T04:09:32.863Z,99.90
2022-08-18T04:12:34.643Z,99.90
2022-08-18T04:15:37.095Z,99.90
2022-08-18T04:18:39.031Z,99.90
2022-08-18T04:21:42.459Z,99.90
2022-08-18T04:24:44.599Z,99.90
2022-08-18T04:27:47.367Z,99.90
2022-08-18T04:30:49.173Z,99.90
2022-08-18T04:33:50.915Z,99.90
2022-08-18T04:36:53.856Z,99.90
2022-08-18T04:39:55.962Z,99.90
2022-08-18T04:42:57.777Z,99.90
2022-08-18T04:46:01.941Z,99.90
2022-08-18T04:49:03.960Z,99.90
2022-08-18T04:52:40.420Z,99.90
2022-08-18T04:55:51.947Z,99.90
2022-08-18T04:58:56.867Z,99.90
2022-08-18T05:02:01.570Z,99.90
2022-08-18T05:05:04.725Z,99.90
2022-08-18T05:08:06.449Z,99.90
2022-08-18T05:11:09.430Z,99.90
2022-08-18T05:14:11.600Z,99.90
2022-08-18T05:17:15.988Z,99.90
2022-08-18T05:20:18.195Z,99.90
2022-08-18T05:23:21.063Z,99.90
2022-08-18T05:26:26.159Z,99.90
2022-08-18T05:29:34.183Z,99.90
2022-08-18T05:32:47.894Z,99.90
2022-08-18T05:36:01.730Z,99.90
2022-08-18T05:39:11.553Z,99.90
2022-08-18T05:42:17.644Z,99.90
2022-08-18T05:45:20.596Z,99.90
2022-08-18T05:48:22.384Z,99.90
2022-08-18T05:51:36.902Z,99.90
2022-08-18T05:55:05.643Z,99.90
2022-08-18T05:58:16.873Z,99.90
2022-08-18T06:01:30.136Z,99.90
2022-08-18T06:04:53.874Z,99.90
2022-08-18T06:08:13.708Z,99.90
2022-08-18T06:11:22.206Z,99.90
2022-08-18T06:14:24.943Z,99.90
2022-08-18T06:17:38.704Z,99.90
2022-08-18T06:21:10.001Z,99.90
2022-08-18T06:24:29.522Z,99.90
2022-08-18T06:27:40.233Z,99.90
2022-08-18T06:30:41.901Z,99.90
2022-08-18T06:34:00.899Z,99.90
2022-08-18T06:37:29.162Z,99.90
2022-08-18T06:40:31.887Z,99.90
2022-08-18T06:43:36.462Z,99.90
2022-08-18T06:47:00.426Z,99.90
2022-08-18T06:50:26.430Z,99.90
2022-08-18T06:53:53.150Z,99.90
2022-08-18T06:56:56.546Z,99.90
2022-08-18T07:00:09.691Z,99.90
2022-08-18T07:03:14.560Z,99.90
2022-08-18T07:06:22.392Z,99.90
2022-08-18T07:09:33.109Z,99.90
2022-08-18T07:12:34.869Z,99.90
2022-08-18T07:15:36.598Z,99.90
2022-08-18T07:18:38.314Z,99.90
2022-08-18T07:21:43.400Z,99.90
2022-08-18T07:24:49.115Z,99.90
2022-08-18T07:27:52.821Z,99.90
2022-08-18T07:31:17.548Z,99.90
2022-08-18T07:34:42.785Z,99.90
2022-08-18T07:38:09.682Z,99.90
2022-08-18T07:42:10.848Z,99.90
2022-08-18T07:45:23.831Z,99.90
2022-08-18T07:48:40.176Z,99.90
2022-08-18T07:51:47.965Z,99.90
2022-08-18T07:55:10.109Z,99.90
2022-08-18T07:58:49.506Z,99.90
2022-08-18T08:02:04.735Z,99.90
2022-08-18T08:05:17.770Z,99.90
2022-08-18T08:08:34.005Z,99.90
2022-08-18T08:11:54.335Z,99.90
2022-08-18T08:15:07.489Z,99.90
2022-08-18T08:18:29.413Z,99.90
2022-08-18T08:21:40.384Z,99.90
2022-08-18T08:24:44.751Z,99.90
2022-08-18T08:28:08.181Z,99.90
2022-08-18T08:31:43.306Z,99.90
2022-08-18T08:35:47.058Z,99.90
2022-08-18T08:38:49.570Z,99.90
2022-08-18T08:42:00.399Z,99.90
2022-08-18T08:45:29.640Z,99.90
2022-08-18T08:48:35.245Z,99.90
2022-08-18T08:51:43.152Z,99.90
2022-08-18T08:54:53.669Z,99.90
2022-08-18T08:58:07.582Z,99.90
2022-08-18T09:01:21.673Z,99.90
2022-08-18T09:04:36.049Z,99.90
2022-08-18T09:08:03.086Z,99.90
2022-08-18T09:11:33.566Z,99.90
2022-08-18T09:15:03.769Z,99.90
2022-08-18T09:18:13.137Z,99.90
2022-08-18T09:21:48.643Z,99.90
2022-08-18T09:24:54.766Z,99.90
2022-08-18T09:28:40.997Z,99.90
2022-08-18T09:31:45.786Z,99.90
2022-08-18T09:35:22.968Z,99.90
2022-08-18T09:38:49.139Z,99.90
2022-08-18T09:42:00.196Z,99.90
2022-08-18T09:45:33.321Z,99.90
2022-08-18T09:48:43.071Z,99.90
2022-08-18T09:51:45.241Z,99.90
2022-08-18T09:55:05.407Z,99.90
2022-08-18T09:58:26.817Z,99.90
2022-08-18T10:01:38.118Z,99.90
2022-08-18T10:04:50.350Z,99.90
2022-08-18T10:08:07.245Z,99.90
2022-08-18T10:11:27.101Z,99.90
2022-08-18T10:14:44.358Z,99.90
2022-08-18T10:18:04.661Z,99.90
2022-08-18T10:21:17.496Z,99.90
2022-08-18T10:24:38.022Z,99.90
2022-08-18T10:27:45.422Z,99.90
2022-08-18T10:34:51.702Z,99.90
2022-08-18T10:37:55.296Z,99.90
2022-08-18T10:41:15.152Z,99.90
2022-08-18T10:44:29.184Z,99.90
2022-08-18T10:47:33.186Z,99.90
2022-08-18T10:50:51.485Z,99.90
2022-08-18T10:54:07.788Z,99.90
2022-08-18T10:57:42.028Z,99.90
2022-08-18T11:00:55.356Z,99.90
2022-08-18T11:04:33.336Z,99.90
2022-08-18T11:07:39.633Z,99.90
2022-08-18T11:11:27.401Z,99.90
2022-08-18T11:14:21.419Z,99.90
2022-08-18T11:17:44.786Z,99.90
2022-08-18T11:20:47.237Z,99.90
2022-08-18T11:24:08.973Z,99.90
2022-08-18T11:27:22.651Z,99.90
2022-08-18T11:30:37.356Z,99.90
2022-08-18T11:33:42.170Z,99.90
2022-08-18T11:36:53.962Z,99.90
2022-08-18T11:39:59.574Z,99.90
2022-08-18T11:43:40.731Z,99.90
2022-08-18T11:46:46.370Z,99.90
2022-08-18T11:50:08.337Z,99.90
2022-08-18T11:53:35.685Z,99.90
2022-08-18T11:56:40.294Z,99.90
2022-08-18T11:59:54.285Z,99.90
2022-08-18T12:03:19.088Z,99.90
2022-08-18T12:06:30.508Z,99.90
2022-08-18T12:10:16.076Z,99.90
2022-08-18T12:13:02.922Z,99.90
2022-08-18T12:16:13.164Z,99.90
2022-08-18T12:19:15.865Z,99.90
2022-08-18T12:22:25.022Z,99.90
2022-08-18T12:25:27.027Z,99.90
2022-08-18T12:28:29.908Z,99.90
2022-08-18T12:31:42.807Z,99.90
2022-08-18T12:34:50.199Z,99.90
2022-08-18T12:38:03.374Z,99.90
2022-08-18T12:41:18.621Z,99.90
2022-08-18T12:44:27.324Z,99.90
2022-08-18T12:47:31.327Z,99.90
2022-08-18T12:50:41.148Z,99.90
2022-08-18T12:53:58.276Z,99.90
2022-08-18T12:57:03.601Z,98.60
2022-08-18T13:00:09.399Z,99.80
2022-08-18T13:03:19.330Z,99.50
2022-08-18T13:06:25.153Z,99.90
2022-08-18T13:09:34.909Z,99.90
2022-08-18T13:12:50.513Z,99.90
2022-08-18T13:15:58.338Z,99.40
2022-08-18T13:19:05.989Z,99.40
2022-08-18T13:22:07.932Z,98.50
2022-08-18T13:25:28.610Z,98.30
2022-08-18T13:28:56.784Z,98.30
2022-08-18T13:31:59.542Z,98.60
2022-08-18T13:35:02.744Z,98.30
2022-08-18T13:38:14.573Z,97.80
2022-08-18T13:41:23.422Z,97.80
2022-08-18T13:44:26.898Z,98.50
2022-08-18T13:47:29.335Z,98.50
2022-08-18T13:50:31.724Z,98.70
2022-08-18T13:53:37.525Z,97.80
2022-08-18T13:56:52.339Z,98.10
2022-08-18T13:59:54.131Z,98.20
2022-08-18T14:02:58.609Z,98.80
2022-08-18T14:06:02.815Z,98.10
2022-08-18T14:09:19.555Z,97.60
2022-08-18T14:12:27.109Z,97.40
2022-08-18T14:15:36.290Z,96.70
2022-08-18T14:18:39.238Z,96.60
2022-08-18T14:22:05.066Z,97.30
2022-08-18T14:25:27.052Z,97.30
2022-08-18T14:28:32.670Z,94.40
2022-08-18T14:31:35.458Z,94.50
2022-08-18T14:34:37.165Z,94.30
2022-08-18T14:37:39.644Z,93.50
2022-08-18T14:40:43.267Z,93.60
2022-08-18T14:44:12.030Z,94.20
2022-08-18T14:47:07.243Z,93.80
2022-08-18T14:50:12.829Z,93.20
2022-08-18T14:53:20.201Z,93.60
2022-08-18T14:56:22.007Z,92.90
2022-08-18T14:59:25.041Z,91.50
2022-08-18T15:02:27.296Z,92.40
2022-08-18T15:05:33.910Z,91.80
2022-08-18T15:08:38.540Z,93.30
2022-08-18T15:11:44.488Z,92.90
2022-08-18T15:14:47.689Z,93.50
2022-08-18T15:17:52.648Z,93.40
2022-08-18T15:21:35.402Z,93.30
2022-08-18T15:25:00.708Z,93.50
2022-08-18T15:28:02.483Z,92.10
2022-08-18T15:34:27.573Z,93.50
2022-08-18T15:37:29.415Z,93.40
2022-08-18T15:40:35.603Z,93.60
2022-08-18T15:43:45.825Z,93.70
2022-08-18T15:46:53.191Z,94.20
2022-08-18T15:49:55.266Z,94.30
2022-08-18T15:53:03.544Z,94.20
2022-08-18T15:56:31.495Z,92.50
2022-08-18T15:59:40.034Z,92.90
2022-08-18T16:02:44.715Z,93.30
2022-08-18T16:05:53.906Z,92.80
2022-08-18T16:08:56.192Z,93.30
2022-08-18T16:12:00.400Z,93.10
2022-08-18T16:15:04.739Z,92.50
2022-08-18T16:18:10.499Z,92.80
2022-08-18T16:21:15.547Z,91.60
2022-08-18T16:24:18.390Z,92.10
2022-08-18T16:27:20.372Z,91.80
2022-08-18T16:30:26.945Z,92.20
2022-08-18T16:33:28.679Z,92.30
2022-08-18T16:36:30.381Z,93.20
2022-08-18T16:39:33.730Z,92.00
2022-08-18T16:42:36.633Z,91.80
2022-08-18T16:45:39.484Z,92.70
2022-08-18T16:48:41.716Z,91.60
2022-08-18T16:51:46.729Z,92.60
2022-08-18T16:54:48.563Z,94.40
2022-08-18T16:58:18.186Z,93.40
2022-08-18T17:01:49.187Z,93.70
2022-08-18T17:04:51.983Z,93.00
2022-08-18T17:07:53.704Z,92.80
2022-08-18T17:10:55.429Z,92.50
2022-08-18T17:14:00.669Z,92.50
2022-08-18T17:17:05.605Z,93.40
2022-08-18T17:20:11.136Z,92.80
2022-08-18T17:23:13.313Z,92.90
2022-08-18T17:26:28.109Z,93.10
2022-08-18T17:29:48.897Z,92.70
2022-08-18T17:32:56.255Z,93.30
2022-08-18T17:36:06.836Z,93.60
2022-08-18T17:39:12.241Z,94.20
2022-08-18T17:42:27.547Z,94.80
2022-08-18T17:45:34.755Z,94.80
2022-08-18T17:49:19.774Z,94.40
2022-08-18T17:52:23.812Z,94.40
2022-08-18T17:55:30.498Z,94.80
2022-08-18T17:58:50.649Z,94.90
2022-08-18T18:02:28.736Z,94.60
2022-08-18T18:05:37.882Z,94.30
2022-08-18T18:08:57.815Z,95.00
2022-08-18T18:12:23.628Z,95.50
2022-08-18T18:15:31.861Z,96.10
2022-08-18T18:18:41.819Z,96.40
2022-08-18T18:22:00.671Z,97.20
2022-08-18T18:25:06.515Z,98.40
2022-08-18T18:28:31.679Z,98.30
2022-08-18T18:31:33.632Z,98.30
2022-08-18T18:34:42.474Z,98.50
2022-08-18T18:37:57.738Z,98.70
2022-08-18T18:41:02.450Z,99.30
2022-08-18T18:44:10.114Z,99.30
2022-08-18T18:47:44.363Z,99.80
2022-08-18T18:51:12.016Z,99.90
2022-08-18T18:54:45.564Z,99.90
2022-08-18T18:58:07.315Z,99.90
2022-08-18T19:01:25.186Z,99.90
2022-08-18T19:04:39.207Z,99.90
2022-08-18T19:07:58.086Z,99.90
2022-08-18T19:11:17.240Z,99.90
2022-08-18T19:14:26.540Z,99.90
2022-08-18T19:17:40.201Z,99.90
2022-08-18T19:22:05.909Z,99.90
2022-08-18T19:24:22.503Z,99.90
2022-08-18T19:27:29.310Z,99.90
2022-08-18T19:30:34.165Z,99.90
2022-08-18T19:33:49.695Z,99.90
2022-08-18T19:37:18.354Z,99.90
2022-08-18T19:40:36.535Z,99.90
2022-08-18T19:43:58.457Z,99.90
2022-08-18T19:47:18.853Z,99.90
2022-08-18T19:50:37.073Z,99.90
2022-08-18T19:54:15.677Z,99.90
2022-08-18T19:57:43.336Z,99.90
2022-08-18T20:01:01.727Z,99.90
2022-08-18T20:04:28.147Z,99.90
2022-08-18T20:07:47.075Z,99.90
2022-08-18T20:10:58.168Z,99.90
2022-08-18T20:14:00.901Z,99.90
2022-08-18T20:17:16.635Z,99.90
2022-08-18T20:20:18.743Z,99.90
2022-08-18T20:23:33.973Z,99.90
2022-08-18T20:26:38.456Z,99.90
2022-08-18T20:29:43.268Z,99.90
2022-08-18T20:33:16.529Z,99.90
2022-08-18T20:36:28.742Z,99.90
2022-08-18T20:39:47.792Z,99.90
2022-08-18T20:43:06.624Z,99.90
2022-08-18T20:46:43.455Z,99.90
2022-08-18T20:50:03.674Z,99.90
2022-08-18T20:53:15.477Z,99.90
2022-08-18T20:56:43.456Z,99.90
2022-08-18T20:59:57.501Z,99.90
2022-08-18T21:03:05.862Z,99.90
2022-08-18T21:06:08.297Z,99.90
2022-08-18T21:09:16.428Z,99.90
2022-08-18T21:12:32.973Z,99.90
2022-08-18T21:15:37.977Z,99.90
2022-08-18T21:18:49.057Z,99.90
2022-08-18T21:21:53.889Z,99.90
2022-08-18T21:24:57.233Z,99.90
2022-08-18T21:27:59.974Z,99.90
2022-08-18T21:31:29.069Z,99.90
2022-08-18T21:34:44.465Z,99.90
2022-08-18T21:37:57.949Z,99.90
2022-08-18T21:41:00.993Z,99.90
2022-08-18T21:44:09.024Z,99.90
2022-08-18T21:47:21.865Z,99.90
2022-08-18T21:50:28.317Z,99.90
2022-08-18T21:53:33.581Z,99.90
2022-08-18T21:56:37.158Z,99.90
2022-08-18T22:00:19.361Z,99.90
2022-08-18T22:03:24.470Z,99.90
2022-08-18T22:06:37.976Z,99.90
2022-08-18T22:10:25.483Z,99.90
2022-08-18T22:13:47.914Z,99.90
2022-08-18T22:16:49.703Z,99.90
2022-08-18T22:19:52.350Z,99.90
2022-08-18T22:23:29.273Z,99.90
2022-08-18T22:26:36.774Z,99.90
2022-08-18T22:29:45.426Z,99.90
2022-08-18T22:32:47.535Z,99.90
2022-08-18T22:35:56.651Z,99.90
2022-08-18T22:38:59.516Z,99.90
2022-08-18T22:42:02.524Z,99.90
2022-08-18T22:45:09.124Z,99.90
2022-08-18T22:48:11.569Z,99.90
2022-08-18T22:51:13.389Z,99.90
2022-08-18T22:54:16.890Z,99.90
2022-08-18T22:57:18.870Z,99.90
2022-08-18T23:00:25.889Z,99.90
2022-08-18T23:03:27.780Z,99.90
2022-08-18T23:06:31.428Z,99.90
2022-08-18T23:09:34.039Z,99.90
2022-08-18T23:12:35.810Z,99.90
2022-08-18T23:15:49.592Z,99.90
2022-08-18T23:18:52.825Z,99.90
2022-08-18T23:21:55.111Z,99.90
2022-08-18T23:24:56.815Z,99.90
2022-08-18T23:27:59.893Z,99.90
2022-08-18T23:31:01.616Z,99.90
2022-08-18T23:34:03.465Z,99.90
2022-08-18T23:37:05.378Z,99.90
2022-08-18T23:40:14.617Z,99.90
2022-08-18T23:43:17.071Z,99.90
2022-08-18T23:46:22.308Z,99.90
2022-08-18T23:49:24.585Z,99.90
2022-08-18T23:52:26.288Z,99.90
2022-08-18T23:55:28.392Z,99.90
2022-08-18T23:58:30.078Z,99.90
